Time;durP1;ratioP1;P1;durP2;ratioP2;P2;SDS_P1;SDS_P2;PMS_P1;PMS_P2;Temp;Humidity;BMP_temperature;BMP_pressure;BME280_temperature;BME280_humidity;BME280_pressure;Samples;Min_cycle;Max_cycle;Signal;HPM_P1;HPM_P2
2022/06/08 00:01:44;;;;;;;0.80;0.80;;;22.40;76.70;;;;;;5128814;27;20181;-94
2022/06/08 00:04:13;;;;;;;1.10;1.00;;;22.40;76.80;;;;;;5126469;27;20180;-93
2022/06/08 00:06:39;;;;;;;0.90;0.90;;;22.40;76.90;;;;;;5124671;27;20642;-93
2022/06/08 00:09:05;;;;;;;1.23;1.10;;;22.40;76.90;;;;;;5123998;27;20201;-93
2022/06/08 00:11:31;;;;;;;0.90;0.80;;;22.40;77.00;;;;;;5126106;27;20193;-93
2022/06/08 00:13:57;;;;;;;1.70;1.00;;;22.40;77.00;;;;;;5125712;27;20567;-93
2022/06/08 00:16:26;;;;;;;1.23;0.90;;;22.30;77.00;;;;;;5125988;27;20169;-93
2022/06/08 00:18:52;;;;;;;1.13;1.07;;;22.30;77.10;;;;;;5125629;28;20180;-93
2022/06/08 00:21:19;;;;;;;0.90;0.90;;;22.30;77.20;;;;;;5127317;27;20209;-94
2022/06/08 00:23:46;;;;;;;1.20;1.10;;;22.30;77.10;;;;;;5128501;28;20500;-93
2022/06/08 00:26:12;;;;;;;1.13;1.03;;;22.30;77.20;;;;;;5127861;28;20228;-93
2022/06/08 00:28:38;;;;;;;0.90;0.90;;;22.30;77.30;;;;;;5127496;28;20169;-93
2022/06/08 00:31:04;;;;;;;1.00;0.90;;;22.30;77.30;;;;;;5129433;28;20173;-93
2022/06/08 00:33:32;;;;;;;1.13;1.03;;;22.30;77.30;;;;;;5128532;28;20211;-93
2022/06/08 00:35:58;;;;;;;0.90;0.90;;;22.30;77.50;;;;;;5128691;28;20201;-94
2022/06/08 00:38:24;;;;;;;1.67;1.20;;;22.30;77.50;;;;;;5129780;28;20177;-93
2022/06/08 00:41:05;;;;;;;1.20;1.10;;;22.30;77.40;;;;;;5129971;28;20515;-94
2022/06/08 00:43:32;;;;;;;1.27;1.10;;;22.30;77.50;;;;;;5127509;28;20236;-94
2022/06/08 00:45:58;;;;;;;1.20;1.10;;;22.20;77.50;;;;;;5127890;28;20492;-93
2022/06/08 00:48:29;;;;;;;1.43;1.10;;;22.20;77.50;;;;;;5131621;28;20173;-94
2022/06/08 00:50:57;;;;;;;1.30;1.00;;;22.20;77.50;;;;;;5130858;28;20221;-94
2022/06/08 00:56:09;;;;;;;1.63;1.20;;;22.20;77.60;;;;;;5257139;22;20613;-94
2022/06/08 00:58:37;;;;;;;1.10;1.00;;;22.20;77.70;;;;;;5125364;28;20208;-93
2022/06/08 01:01:04;;;;;;;1.30;1.20;;;22.20;77.70;;;;;;5123195;28;20241;-93
2022/06/08 01:03:30;;;;;;;1.10;1.00;;;22.20;77.70;;;;;;5123069;28;20177;-94
2022/06/08 01:06:00;;;;;;;1.10;1.10;;;22.20;77.80;;;;;;5123214;28;20208;-94
2022/06/08 01:08:39;;;;;;;1.20;1.10;;;22.20;77.80;;;;;;5123643;28;20197;-94
2022/06/08 01:11:12;;;;;;;0.97;0.97;;;22.20;77.80;;;;;;5123455;28;20221;-94
2022/06/08 01:13:39;;;;;;;1.30;1.20;;;22.20;77.70;;;;;;5122700;28;20170;-94
2022/06/08 01:16:07;;;;;;;1.50;1.23;;;22.20;77.70;;;;;;5121269;28;20209;-94
2022/06/08 01:18:33;;;;;;;2.20;1.30;;;22.10;77.80;;;;;;5121198;28;20169;-94
2022/06/08 01:21:24;;;;;;;1.20;1.10;;;22.20;77.90;;;;;;5121094;28;20177;-94
2022/06/08 01:24:00;;;;;;;1.33;1.20;;;22.10;77.80;;;;;;5120720;28;20557;-94
2022/06/08 01:26:50;;;;;;;1.30;1.20;;;22.10;77.80;;;;;;5121448;28;20173;-94
2022/06/08 01:29:22;;;;;;;1.20;1.10;;;22.10;77.80;;;;;;5119542;28;20174;-94
2022/06/08 01:32:08;;;;;;;1.47;1.20;;;22.10;77.90;;;;;;5121638;28;20253;-94
2022/06/08 01:34:38;;;;;;;1.17;1.00;;;22.10;78.00;;;;;;5120780;28;20602;-94
2022/06/08 01:37:25;;;;;;;1.27;1.17;;;22.10;77.90;;;;;;5122113;28;20166;-94
2022/06/08 01:50:24;;;;;;;1.10;1.10;;;22.00;77.80;;;;;;5142027;27;20175;-94
2022/06/08 01:52:59;;;;;;;1.20;1.10;;;22.00;77.90;;;;;;5114848;27;20170;-94
2022/06/08 01:55:45;;;;;;;1.20;1.10;;;22.00;77.80;;;;;;5125825;27;20252;-94
2022/06/08 01:58:24;;;;;;;1.20;1.10;;;22.00;77.90;;;;;;5125118;27;20225;-93
2022/06/08 02:01:20;;;;;;;1.20;1.10;;;22.00;77.90;;;;;;5126055;27;20166;-93
2022/06/08 02:04:16;;;;;;;1.20;1.10;;;22.00;77.90;;;;;;5083023;27;20641;-93
2022/06/08 02:06:54;;;;;;;1.07;1.00;;;22.00;77.90;;;;;;5116874;27;20181;-94
2022/06/08 02:09:35;;;;;;;1.23;1.13;;;22.00;77.90;;;;;;5125070;27;20166;-94
2022/06/08 02:12:06;;;;;;;1.23;1.13;;;22.00;77.90;;;;;;5125238;27;20169;-94
2022/06/08 02:14:47;;;;;;;1.30;1.20;;;22.00;77.90;;;;;;5125728;27;20226;-94
2022/06/08 02:17:19;;;;;;;1.23;1.10;;;22.00;77.90;;;;;;5125176;27;20537;-94
2022/06/08 02:19:49;;;;;;;1.30;1.20;;;21.90;77.80;;;;;;5125338;27;20168;-94
2022/06/08 02:22:34;;;;;;;1.60;1.47;;;21.90;77.80;;;;;;5131511;27;20194;-94
2022/06/08 02:25:32;;;;;;;1.17;1.07;;;21.90;77.90;;;;;;5127056;27;20437;-94
2022/06/08 02:28:17;;;;;;;1.40;1.27;;;21.90;77.80;;;;;;5126371;27;20169;-94
2022/06/08 02:30:57;;;;;;;1.57;1.23;;;21.90;77.80;;;;;;5128217;27;20514;-94
2022/06/08 02:36:23;;;;;;;1.10;1.00;;;21.90;77.80;;;;;;5144416;27;20297;-94
2022/06/08 02:39:09;;;;;;;1.30;1.20;;;21.90;77.80;;;;;;5128081;27;20441;-94
2022/06/08 02:41:38;;;;;;;1.20;1.10;;;21.90;77.80;;;;;;5126378;27;20188;-94
2022/06/08 02:44:09;;;;;;;1.30;1.20;;;21.80;77.70;;;;;;5127489;27;20172;-94
2022/06/08 02:46:49;;;;;;;1.13;1.03;;;21.80;77.70;;;;;;5126860;27;20559;-94
2022/06/08 02:49:16;;;;;;;1.30;1.10;;;21.80;77.70;;;;;;5127229;27;20170;-94
2022/06/08 02:51:46;;;;;;;1.30;1.20;;;21.80;77.70;;;;;;5126217;27;20201;-94
2022/06/08 02:54:21;;;;;;;1.27;1.20;;;21.80;77.70;;;;;;5128298;27;20622;-94
2022/06/08 02:57:27;;;;;;;1.30;1.20;;;21.80;77.80;;;;;;5129351;27;20187;-93
2022/06/08 02:59:59;;;;;;;2.33;1.37;;;21.80;77.80;;;;;;5046368;28;20177;-95
2022/06/08 03:02:33;;;;;;;1.27;1.17;;;21.80;77.80;;;;;;5118219;27;20275;-94
2022/06/08 03:05:09;;;;;;;1.30;1.20;;;21.70;77.70;;;;;;5143652;27;20178;-93
2022/06/08 03:07:41;;;;;;;1.17;1.07;;;21.70;77.70;;;;;;5126937;27;20180;-95
2022/06/08 03:10:10;;;;;;;1.37;1.20;;;21.70;77.70;;;;;;5126297;27;20185;-94
2022/06/08 03:12:41;;;;;;;1.30;1.20;;;21.70;77.70;;;;;;5127294;27;20178;-94
2022/06/08 03:15:09;;;;;;;1.20;1.10;;;21.70;77.80;;;;;;5127912;27;20597;-94
2022/06/08 03:17:40;;;;;;;1.30;1.20;;;21.70;77.60;;;;;;5128398;27;20181;-94
2022/06/08 03:20:09;;;;;;;1.30;1.20;;;21.70;77.70;;;;;;5128558;27;20170;-94
2022/06/08 03:22:36;;;;;;;1.20;1.10;;;21.70;77.70;;;;;;5126615;27;20170;-94
2022/06/08 03:25:03;;;;;;;1.20;1.10;;;21.70;77.70;;;;;;5128070;27;20181;-95
2022/06/08 03:27:29;;;;;;;1.43;1.33;;;21.70;77.80;;;;;;5125903;27;20492;-93
2022/06/08 03:29:56;;;;;;;1.20;1.10;;;21.70;77.70;;;;;;5123221;27;20239;-94
2022/06/08 03:32:22;;;;;;;1.00;1.00;;;21.70;77.70;;;;;;5122793;27;20416;-93
2022/06/08 03:34:47;;;;;;;1.20;1.10;;;21.70;77.70;;;;;;5123960;27;20603;-94
2022/06/08 03:37:13;;;;;;;1.47;1.20;;;21.70;77.60;;;;;;5123365;27;20207;-95
2022/06/08 03:39:39;;;;;;;1.40;1.30;;;21.70;77.70;;;;;;5123573;27;20208;-94
2022/06/08 03:42:05;;;;;;;1.20;1.10;;;21.70;77.60;;;;;;5123654;27;20282;-94
2022/06/08 03:44:31;;;;;;;1.77;1.27;;;21.70;77.60;;;;;;5123654;27;20180;-94
2022/06/08 03:47:05;;;;;;;1.83;1.53;;;21.60;77.50;;;;;;5123179;27;20181;-93
2022/06/08 03:49:31;;;;;;;1.30;1.20;;;21.60;77.50;;;;;;5123459;27;20172;-94
2022/06/08 03:51:58;;;;;;;1.43;1.33;;;21.60;77.50;;;;;;5122334;27;20295;-94
2022/06/08 03:54:27;;;;;;;1.30;1.20;;;21.60;77.50;;;;;;5123163;27;20215;-93
2022/06/08 03:56:58;;;;;;;1.30;1.20;;;21.70;77.40;;;;;;5123371;27;20199;-94
2022/06/08 03:59:24;;;;;;;1.30;1.20;;;21.70;77.30;;;;;;5124208;27;20177;-94
2022/06/08 04:01:50;;;;;;;1.07;1.07;;;21.70;77.20;;;;;;5122496;28;20556;-93
2022/06/08 04:04:17;;;;;;;1.13;1.00;;;21.70;77.10;;;;;;5122703;27;20172;-94
2022/06/08 04:06:43;;;;;;;1.00;1.00;;;21.70;76.90;;;;;;5121460;27;20177;-93
2022/06/08 04:09:09;;;;;;;1.30;1.20;;;21.70;76.80;;;;;;5121770;27;20182;-94
2022/06/08 04:11:35;;;;;;;1.10;1.10;;;21.70;76.70;;;;;;5122132;27;20190;-94
2022/06/08 04:14:02;;;;;;;1.00;1.00;;;21.70;76.60;;;;;;5120550;27;20183;-94
2022/06/08 04:16:28;;;;;;;1.30;1.10;;;21.70;76.50;;;;;;5120960;27;20173;-94
2022/06/08 04:18:54;;;;;;;1.10;1.00;;;21.70;76.40;;;;;;5121426;27;20173;-94
2022/06/08 04:21:20;;;;;;;1.67;1.20;;;21.70;76.20;;;;;;5123485;28;20244;-93
2022/06/08 04:23:48;;;;;;;1.13;1.10;;;21.70;76.00;;;;;;5122566;28;20177;-94
2022/06/08 04:26:15;;;;;;;1.30;1.20;;;21.70;76.00;;;;;;5122967;28;20177;-94
2022/06/08 04:28:42;;;;;;;1.30;1.20;;;21.70;75.80;;;;;;5122146;28;20547;-94
2022/06/08 04:31:08;;;;;;;1.40;1.30;;;21.70;75.60;;;;;;5122197;28;20443;-94
2022/06/08 04:33:37;;;;;;;1.30;1.20;;;21.70;75.60;;;;;;5120606;28;20558;-94
2022/06/08 04:36:05;;;;;;;1.30;1.20;;;21.70;75.40;;;;;;5120832;28;20516;-93
2022/06/08 04:38:31;;;;;;;1.17;1.10;;;21.80;75.30;;;;;;5119273;28;20521;-93
2022/06/08 04:40:57;;;;;;;1.87;1.20;;;21.80;75.30;;;;;;5120193;28;20166;-93
2022/06/08 04:43:23;;;;;;;1.10;1.00;;;21.80;75.10;;;;;;5120926;28;20170;-94
2022/06/08 04:45:49;;;;;;;1.00;1.00;;;21.80;75.00;;;;;;5122386;28;20169;-94
2022/06/08 04:48:15;;;;;;;1.10;1.00;;;21.80;74.90;;;;;;5123153;28;20174;-94
2022/06/08 04:50:40;;;;;;;1.53;1.20;;;21.80;74.80;;;;;;5121704;28;20184;-94
2022/06/08 04:53:07;;;;;;;1.30;1.20;;;21.80;74.80;;;;;;5120669;28;20264;-94
2022/06/08 04:55:33;;;;;;;1.40;1.30;;;21.80;74.90;;;;;;5119699;28;20235;-93
2022/06/08 04:57:58;;;;;;;1.30;1.20;;;21.80;74.80;;;;;;5122238;28;20316;-94
2022/06/08 05:00:29;;;;;;;1.20;1.10;;;21.80;74.90;;;;;;5123055;28;20224;-94
2022/06/08 05:02:55;;;;;;;1.20;1.10;;;21.80;75.10;;;;;;5122933;28;20177;-94
2022/06/08 05:05:26;;;;;;;1.43;1.33;;;21.80;75.10;;;;;;5125477;28;20244;-94
2022/06/08 05:07:53;;;;;;;1.30;1.20;;;21.80;75.10;;;;;;5125412;28;20193;-94
2022/06/08 05:10:20;;;;;;;1.33;1.23;;;21.80;75.10;;;;;;5127735;28;20272;-94
2022/06/08 05:12:47;;;;;;;1.53;1.10;;;21.80;75.20;;;;;;5123876;28;20192;-94
2022/06/08 05:15:17;;;;;;;1.30;1.20;;;21.80;75.00;;;;;;5126526;27;20218;-93
2022/06/08 05:17:43;;;;;;;1.30;1.20;;;21.80;75.10;;;;;;5129031;27;20170;-94
2022/06/08 05:20:10;;;;;;;1.30;1.20;;;21.90;75.10;;;;;;5126961;27;20240;-94
2022/06/08 05:22:43;;;;;;;1.30;1.20;;;21.90;75.00;;;;;;5127885;27;20197;-94
2022/06/08 05:25:12;;;;;;;2.13;1.30;;;21.90;75.00;;;;;;5128102;27;20553;-93
2022/06/08 05:27:38;;;;;;;1.30;1.20;;;21.90;74.50;;;;;;5127847;27;20452;-94
2022/06/08 05:30:06;;;;;;;1.93;1.30;;;21.90;74.40;;;;;;5128622;27;20176;-94
2022/06/08 05:32:31;;;;;;;1.50;1.27;;;22.00;74.30;;;;;;5127244;27;20177;-93
2022/06/08 05:34:57;;;;;;;2.30;1.10;;;22.00;74.30;;;;;;5127148;27;20269;-94
2022/06/08 05:37:23;;;;;;;1.40;1.30;;;22.00;74.40;;;;;;5125756;27;20538;-94
2022/06/08 05:39:49;;;;;;;2.13;1.40;;;22.00;74.60;;;;;;5124511;27;20181;-94
2022/06/08 05:42:15;;;;;;;1.90;1.40;;;22.00;74.70;;;;;;5123307;27;20189;-94
2022/06/08 05:44:41;;;;;;;1.40;1.20;;;22.00;74.30;;;;;;5125549;27;20173;-93
2022/06/08 05:47:08;;;;;;;4.50;1.30;;;22.10;74.30;;;;;;5127484;27;20204;-94
2022/06/08 05:49:34;;;;;;;1.77;1.20;;;22.10;74.40;;;;;;5126559;27;20170;-94
2022/06/08 05:52:01;;;;;;;1.70;1.07;;;22.10;74.30;;;;;;5124840;27;20518;-94
2022/06/08 05:54:28;;;;;;;1.67;1.30;;;22.20;74.20;;;;;;5123696;27;20213;-94
2022/06/08 05:56:54;;;;;;;1.53;1.40;;;22.20;74.00;;;;;;5125786;27;20200;-93
2022/06/08 05:59:20;;;;;;;1.30;1.20;;;22.30;73.80;;;;;;5121327;27;20523;-94
2022/06/08 06:01:45;;;;;;;1.30;1.20;;;22.40;72.90;;;;;;5123418;27;20177;-94
2022/06/08 06:04:12;;;;;;;1.40;1.30;;;22.50;71.60;;;;;;5124447;27;20223;-94
2022/06/08 06:06:43;;;;;;;1.40;1.30;;;22.70;70.20;;;;;;5125138;27;20301;-94
2022/06/08 06:09:10;;;;;;;2.07;1.10;;;22.80;69.30;;;;;;5122352;27;20207;-93
2022/06/08 06:11:37;;;;;;;1.57;1.23;;;22.90;68.50;;;;;;5120167;27;20178;-93
2022/06/08 06:14:04;;;;;;;2.73;1.30;;;23.00;67.80;;;;;;5120034;27;20226;-94
2022/06/08 06:16:30;;;;;;;1.97;1.37;;;23.00;68.00;;;;;;5119913;27;20520;-93
2022/06/08 06:18:56;;;;;;;1.57;1.30;;;22.90;68.20;;;;;;5120206;27;20264;-93
2022/06/08 06:21:25;;;;;;;1.40;1.30;;;22.90;68.30;;;;;;5121454;27;20347;-93
2022/06/08 06:23:56;;;;;;;4.57;1.70;;;22.90;68.70;;;;;;5119278;27;20258;-94
2022/06/08 06:26:25;;;;;;;1.53;1.43;;;22.90;68.50;;;;;;5118561;27;20175;-94
2022/06/08 06:28:51;;;;;;;2.00;1.23;;;22.90;68.60;;;;;;5120417;27;20174;-93
2022/06/08 06:31:22;;;;;;;1.30;1.20;;;22.90;68.70;;;;;;5120761;27;20178;-94
2022/06/08 06:33:47;;;;;;;1.60;1.20;;;22.90;68.50;;;;;;5118634;27;20183;-93
2022/06/08 06:36:14;;;;;;;1.70;1.20;;;22.90;68.60;;;;;;5121312;27;20204;-94
2022/06/08 06:38:40;;;;;;;2.70;1.27;;;22.90;68.70;;;;;;5122381;27;20168;-94
2022/06/08 06:41:06;;;;;;;2.43;1.50;;;22.90;68.60;;;;;;5121898;27;20168;-94
2022/06/08 06:43:35;;;;;;;2.17;1.30;;;23.00;68.30;;;;;;5126677;27;20212;-94
2022/06/08 06:46:02;;;;;;;1.40;1.20;;;23.00;68.10;;;;;;5123932;27;20181;-94
2022/06/08 06:48:29;;;;;;;2.53;1.23;;;23.00;68.30;;;;;;5121091;27;20177;-94
2022/06/08 06:50:54;;;;;;;1.80;1.30;;;23.00;68.40;;;;;;5124891;27;20170;-94
2022/06/08 06:53:20;;;;;;;1.90;1.27;;;23.00;68.10;;;;;;5125201;27;20187;-94
2022/06/08 06:55:46;;;;;;;3.70;1.20;;;23.00;67.70;;;;;;5128155;27;20680;-94
2022/06/08 06:58:12;;;;;;;1.43;1.20;;;23.10;67.10;;;;;;5126159;27;20195;-94
2022/06/08 07:00:38;;;;;;;2.10;1.30;;;23.20;66.60;;;;;;5128387;27;20170;-95
2022/06/08 07:03:04;;;;;;;3.00;1.30;;;23.20;66.40;;;;;;5130088;27;20341;-94
2022/06/08 07:05:33;;;;;;;3.73;1.37;;;23.30;65.60;;;;;;5133195;27;20221;-95
2022/06/08 07:07:58;;;;;;;1.83;1.20;;;23.40;64.90;;;;;;5132544;27;20268;-95
2022/06/08 07:10:24;;;;;;;2.00;1.20;;;23.50;64.20;;;;;;5133807;27;20174;-95
2022/06/08 07:12:50;;;;;;;1.33;1.23;;;23.50;63.50;;;;;;5134917;27;20268;-95
2022/06/08 07:22:11;;;;;;;2.20;1.30;;;23.80;62.10;;;;;;5161614;27;20145;-95
2022/06/08 07:24:39;;;;;;;2.40;1.23;;;23.90;61.80;;;;;;5143769;27;20145;-95
2022/06/08 07:27:05;;;;;;;1.77;1.27;;;23.90;61.40;;;;;;5143932;27;20160;-96
2022/06/08 07:29:31;;;;;;;1.47;1.10;;;24.00;61.00;;;;;;5143693;27;20173;-94
2022/06/08 07:42:05;;;;;;;1.33;1.03;;;24.00;60.90;;;;;;5161232;27;20217;-96
2022/06/08 07:44:31;;;;;;;1.73;1.40;;;24.00;61.40;;;;;;5143471;27;20157;-94
2022/06/08 07:46:57;;;;;;;1.43;1.20;;;24.00;61.70;;;;;;5143518;27;20154;-96
2022/06/08 07:49:39;;;;;;;3.07;1.13;;;23.90;62.10;;;;;;5143513;27;20149;-94
2022/06/08 07:52:13;;;;;;;2.73;1.30;;;23.90;62.40;;;;;;5143487;27;20157;-95
2022/06/08 07:54:41;;;;;;;1.30;1.10;;;23.90;62.60;;;;;;5143154;27;20180;-95
2022/06/08 07:57:08;;;;;;;1.97;1.40;;;23.90;62.70;;;;;;5143136;27;20173;-94
2022/06/08 07:59:36;;;;;;;2.50;1.50;;;23.90;62.70;;;;;;5143207;27;20157;-94
2022/06/08 08:02:03;;;;;;;1.70;1.30;;;23.90;62.80;;;;;;5143171;27;20154;-94
2022/06/08 08:04:29;;;;;;;1.73;1.30;;;23.90;63.10;;;;;;5142860;27;20169;-95
2022/06/08 08:06:56;;;;;;;1.87;1.23;;;23.90;63.30;;;;;;5143103;27;20201;-95
2022/06/08 08:09:22;;;;;;;1.67;1.20;;;23.90;63.70;;;;;;5143056;27;20189;-94
2022/06/08 08:11:51;;;;;;;2.50;1.37;;;23.90;63.90;;;;;;5142881;27;20213;-95
2022/06/08 08:14:22;;;;;;;4.80;1.47;;;23.90;64.10;;;;;;5142869;27;20193;-95
2022/06/08 08:16:48;;;;;;;2.57;1.40;;;23.90;64.20;;;;;;5142921;27;20187;-94
2022/06/08 08:19:18;;;;;;;3.50;1.50;;;23.90;64.20;;;;;;5142944;27;20162;-94
2022/06/08 08:21:45;;;;;;;2.87;1.30;;;24.00;63.90;;;;;;5141538;27;20233;-95
2022/06/08 08:24:11;;;;;;;1.97;1.43;;;24.00;63.80;;;;;;5140179;27;20238;-95
2022/06/08 08:26:36;;;;;;;2.83;1.40;;;24.00;63.50;;;;;;5141483;27;20166;-96
2022/06/08 08:29:03;;;;;;;1.73;1.47;;;24.10;62.90;;;;;;5140223;28;20174;-96
2022/06/08 08:31:49;;;;;;;2.77;1.33;;;24.20;62.40;;;;;;5140166;28;20169;-96
2022/06/08 08:34:16;;;;;;;2.77;1.30;;;24.30;62.00;;;;;;5140492;28;20173;-94
2022/06/08 08:36:42;;;;;;;1.80;1.40;;;24.40;61.80;;;;;;5140920;28;20206;-95
2022/06/08 08:39:11;;;;;;;1.40;1.20;;;24.40;61.60;;;;;;5141421;28;20177;-95
2022/06/08 08:44:39;;;;;;;3.83;1.63;;;24.40;61.70;;;;;;5158723;27;20160;-95
2022/06/08 08:50:53;;;;;;;2.40;1.30;;;24.40;61.60;;;;;;5120960;28;20272;-95
2022/06/08 08:53:24;;;;;;;2.00;1.57;;;24.60;60.70;;;;;;5101315;28;20188;-96
2022/06/08 08:55:56;;;;;;;2.90;1.52;;;24.80;60.00;;;;;;5097866;28;20210;-96
2022/06/08 08:58:35;;;;;;;1.65;1.30;;;24.90;59.60;;;;;;5097119;28;20181;-96
2022/06/08 09:01:21;;;;;;;1.65;1.50;;;25.00;59.20;;;;;;5098761;28;20175;-94
2022/06/08 09:04:05;;;;;;;2.20;1.48;;;25.10;59.00;;;;;;5096820;28;20163;-95
2022/06/08 09:06:33;;;;;;;3.38;1.70;;;25.10;58.90;;;;;;5096698;28;20171;-95
2022/06/08 09:09:02;;;;;;;1.80;1.30;;;25.20;58.90;;;;;;5098160;28;20195;-95
2022/06/08 09:11:34;;;;;;;2.55;1.50;;;25.20;58.80;;;;;;5097222;28;20175;-96
2022/06/08 09:14:16;;;;;;;1.30;1.20;;;25.20;58.60;;;;;;5096163;28;20205;-95
2022/06/08 09:16:52;;;;;;;2.33;1.50;;;25.20;58.60;;;;;;5095602;28;20163;-96
2022/06/08 09:19:35;;;;;;;2.75;1.63;;;25.30;58.70;;;;;;5096783;28;20205;-96
2022/06/08 09:22:04;;;;;;;2.15;1.50;;;25.30;58.60;;;;;;5135412;27;20173;-95
2022/06/08 09:24:58;;;;;;;1.60;1.45;;;25.40;58.50;;;;;;5137549;27;20153;-96
2022/06/08 09:27:26;;;;;;;1.90;1.42;;;25.40;58.50;;;;;;5136227;27;20181;-95
2022/06/08 09:30:02;;;;;;;1.92;1.30;;;25.30;58.50;;;;;;5140921;27;20165;-95
2022/06/08 09:32:56;;;;;;;1.70;1.25;;;25.30;58.70;;;;;;5160440;27;20138;-96
2022/06/08 09:35:28;;;;;;;1.92;1.40;;;25.30;58.90;;;;;;5142979;27;20479;-96
2022/06/08 09:38:11;;;;;;;1.98;1.27;;;25.20;59.00;;;;;;5160933;27;20189;-95
2022/06/08 09:40:55;;;;;;;2.25;1.20;;;25.20;59.10;;;;;;5141995;27;20157;-95
2022/06/08 09:43:40;;;;;;;1.70;1.40;;;25.30;59.20;;;;;;5141807;27;20211;-95
2022/06/08 09:52:28;;;;;;;1.97;1.40;;;25.30;59.50;;;;;;5160153;27;20149;-96
2022/06/08 09:55:24;;;;;;;1.77;1.20;;;25.30;59.60;;;;;;5143113;27;20201;-96
2022/06/08 09:58:08;;;;;;;2.87;1.30;;;25.20;59.80;;;;;;5143495;27;20265;-96
2022/06/08 10:00:53;;;;;;;2.07;1.17;;;25.20;60.10;;;;;;5142831;27;20177;-95
2022/06/08 10:03:37;;;;;;;2.03;1.33;;;25.20;60.50;;;;;;5131495;27;20185;-94
2022/06/08 10:06:06;;;;;;;3.13;1.40;;;25.20;60.80;;;;;;5136415;27;20174;-95
2022/06/08 10:08:40;;;;;;;1.40;1.17;;;25.10;60.90;;;;;;5135459;27;20169;-93
2022/06/08 10:14:23;;;;;;;1.97;1.10;;;25.00;61.50;;;;;;5153583;27;20190;-95
2022/06/08 10:17:03;;;;;;;2.00;1.23;;;25.00;61.70;;;;;;5135749;27;20248;-95
2022/06/08 10:19:45;;;;;;;1.67;1.40;;;25.00;61.90;;;;;;5134550;27;20165;-94
2022/06/08 10:22:12;;;;;;;1.23;1.00;;;25.00;62.10;;;;;;5132782;27;20257;-94
2022/06/08 10:24:55;;;;;;;1.40;1.30;;;25.10;62.20;;;;;;5135988;27;20158;-94
2022/06/08 10:27:41;;;;;;;1.87;1.20;;;25.10;62.20;;;;;;5132465;27;20165;-94
2022/06/08 10:30:41;;;;;;;1.20;1.10;;;25.10;62.10;;;;;;5128358;27;20225;-94
2022/06/08 10:33:33;;;;;;;1.03;0.93;;;25.10;62.70;;;;;;5084138;27;20177;-95
2022/06/08 10:36:00;;;;;;;1.07;0.97;;;25.10;62.00;;;;;;5133250;27;20213;-94
2022/06/08 10:38:36;;;;;;;1.73;1.00;;;25.10;62.10;;;;;;5129471;27;20201;-94
2022/06/08 10:42:39;;;;;;;2.33;1.20;;;25.10;62.10;;;;;;5126719;27;20417;-95
2022/06/08 10:43:53;;;;;;;1.93;1.30;;;25.20;62.20;;;;;;5138864;27;20441;-95
2022/06/08 10:46:46;;;;;;;1.27;1.17;;;25.20;62.10;;;;;;5124031;27;20185;-95
2022/06/08 10:49:36;;;;;;;2.80;1.30;;;25.20;62.10;;;;;;5119879;27;20253;-95
2022/06/08 10:52:11;;;;;;;1.30;1.20;;;25.20;62.00;;;;;;5125437;27;20189;-95
2022/06/08 10:54:55;;;;;;;1.70;1.10;;;25.20;61.90;;;;;;5127591;27;20209;-95
2022/06/08 10:58:03;;;;;;;3.43;1.33;;;25.30;62.00;;;;;;5128236;27;20199;-94
2022/06/08 11:01:02;;;;;;;2.17;1.00;;;25.30;62.00;;;;;;5094836;27;20173;-93
2022/06/08 11:03:40;;;;;;;1.60;1.20;;;25.30;62.20;;;;;;5127971;27;20250;-94
2022/06/08 11:06:30;;;;;;;1.33;1.03;;;25.30;62.20;;;;;;5125593;27;20161;-95
2022/06/08 11:08:56;;;;;;;1.83;1.10;;;25.30;62.30;;;;;;5129096;27;20165;-94
2022/06/08 11:11:41;;;;;;;1.20;1.10;;;25.30;62.40;;;;;;5137830;27;20229;-95
2022/06/08 11:14:51;;;;;;;1.20;1.10;;;25.20;62.20;;;;;;5139674;27;20174;-96
2022/06/08 11:17:50;;;;;;;0.87;0.87;;;25.30;62.70;;;;;;5137522;27;20173;-95
2022/06/08 11:27:09;;;;;;;1.20;1.10;;;25.30;63.00;;;;;;5158386;27;20161;-95
2022/06/08 11:29:49;;;;;;;1.13;0.93;;;25.20;62.90;;;;;;5139286;27;20161;-95
2022/06/08 11:32:24;;;;;;;1.10;0.90;;;25.30;63.10;;;;;;5141700;27;20178;-96
2022/06/08 11:38:31;;;;;;;1.33;1.03;;;25.20;63.50;;;;;;5159273;27;20234;-96
2022/06/08 11:41:21;;;;;;;1.87;1.37;;;25.20;63.60;;;;;;5142197;27;20165;-96
2022/06/08 11:43:51;;;;;;;1.67;1.00;;;25.20;63.90;;;;;;5140127;27;20198;-95
2022/06/08 11:49:52;;;;;;;1.67;1.20;;;25.10;64.10;;;;;;5159782;27;20165;-95
2022/06/08 11:52:25;;;;;;;1.50;1.10;;;25.10;64.20;;;;;;5142047;27;20221;-96
2022/06/08 11:55:08;;;;;;;1.27;1.00;;;25.10;64.30;;;;;;5142501;27;20201;-96
2022/06/08 11:58:05;;;;;;;1.67;1.30;;;25.10;64.80;;;;;;5160247;27;20170;-96
2022/06/08 12:00:36;;;;;;;1.13;0.90;;;25.10;64.90;;;;;;5132048;27;20166;-95
2022/06/08 12:14:02;;;;;;;1.70;1.20;;;24.90;65.20;;;;;;5159725;27;20165;-95
2022/06/08 12:16:31;;;;;;;1.47;1.27;;;25.00;65.40;;;;;;5086468;27;20269;-94
2022/06/08 12:19:04;;;;;;;1.70;1.20;;;24.90;65.60;;;;;;5115535;27;20283;-94
2022/06/08 12:21:42;;;;;;;1.80;1.10;;;24.90;65.80;;;;;;5113825;27;20475;-93
2022/06/08 12:24:11;;;;;;;2.63;1.30;;;24.90;66.00;;;;;;5111594;27;20172;-93
2022/06/08 12:27:02;;;;;;;1.80;1.30;;;24.80;66.30;;;;;;5114329;27;20172;-93
2022/06/08 12:29:37;;;;;;;1.93;1.20;;;24.90;66.70;;;;;;5101432;28;20257;-93
2022/06/08 12:32:17;;;;;;;3.40;1.30;;;24.80;66.90;;;;;;5111460;28;20205;-92
2022/06/08 12:34:47;;;;;;;2.33;1.50;;;24.80;67.30;;;;;;5111317;28;20201;-93
2022/06/08 12:37:32;;;;;;;3.77;1.40;;;24.80;67.60;;;;;;5111968;28;20169;-93
2022/06/08 12:40:19;;;;;;;1.80;1.43;;;24.80;67.90;;;;;;5112781;28;20192;-92
2022/06/08 12:42:55;;;;;;;3.73;1.30;;;24.80;68.40;;;;;;5097933;28;20631;-93
2022/06/08 12:45:34;;;;;;;3.47;1.30;;;24.70;68.60;;;;;;5112566;28;20172;-92
2022/06/08 12:48:16;;;;;;;3.77;1.50;;;24.70;69.10;;;;;;5112218;28;20592;-93
2022/06/08 12:50:42;;;;;;;4.07;1.50;;;24.70;69.40;;;;;;5115191;28;20213;-93
2022/06/08 12:53:09;;;;;;;4.47;1.40;;;24.70;69.70;;;;;;5115976;28;20225;-93
2022/06/08 12:55:36;;;;;;;3.90;1.43;;;24.70;70.00;;;;;;5115069;28;20201;-94
2022/06/08 12:58:02;;;;;;;2.43;1.27;;;24.70;70.40;;;;;;5117341;28;20180;-93
2022/06/08 13:00:30;;;;;;;3.60;1.27;;;24.60;70.60;;;;;;5117381;28;20180;-94
2022/06/08 13:03:09;;;;;;;3.43;1.50;;;24.60;70.80;;;;;;5116481;28;20167;-94
2022/06/08 13:05:35;;;;;;;2.10;1.30;;;24.60;71.20;;;;;;5118622;28;20168;-94
2022/06/08 13:08:02;;;;;;;2.03;1.20;;;24.60;71.50;;;;;;5117751;28;20172;-94
2022/06/08 13:10:31;;;;;;;2.70;1.17;;;24.60;71.80;;;;;;5114097;28;20182;-94
2022/06/08 13:13:03;;;;;;;2.00;1.10;;;24.60;72.00;;;;;;5115172;28;20173;-94
2022/06/08 13:15:39;;;;;;;2.17;1.17;;;24.50;72.30;;;;;;5113216;28;20582;-94
2022/06/08 13:18:07;;;;;;;3.37;1.27;;;24.50;72.50;;;;;;5115930;28;20166;-94
2022/06/08 13:20:37;;;;;;;3.47;1.50;;;24.50;72.60;;;;;;5115680;28;20539;-93
2022/06/08 13:23:03;;;;;;;4.67;1.47;;;24.50;72.90;;;;;;5114257;28;20208;-93
2022/06/08 13:25:32;;;;;;;6.70;1.40;;;24.50;72.90;;;;;;5111715;28;20527;-93
2022/06/08 13:27:59;;;;;;;3.90;1.10;;;24.50;73.20;;;;;;5112266;28;20176;-93
2022/06/08 13:30:28;;;;;;;5.30;1.50;;;24.50;73.20;;;;;;5110632;28;20222;-93
2022/06/08 13:32:58;;;;;;;3.53;1.40;;;24.50;73.50;;;;;;5111407;28;20239;-94
2022/06/08 13:35:29;;;;;;;2.00;1.27;;;24.50;73.80;;;;;;5113755;27;20204;-93
2022/06/08 13:37:55;;;;;;;3.03;1.40;;;24.40;73.90;;;;;;5116047;27;20176;-93
2022/06/08 13:40:29;;;;;;;2.13;1.40;;;24.40;74.80;;;;;;5115820;27;20209;-93
2022/06/08 13:42:58;;;;;;;4.83;1.90;;;24.40;74.30;;;;;;5116306;27;20168;-93
2022/06/08 13:45:29;;;;;;;4.33;1.57;;;24.40;74.60;;;;;;5116364;27;20216;-93
2022/06/08 13:47:58;;;;;;;3.97;1.40;;;24.40;75.00;;;;;;5115112;27;20173;-93
2022/06/08 13:50:33;;;;;;;4.97;1.67;;;24.40;75.50;;;;;;5116312;27;20167;-93
2022/06/08 13:53:00;;;;;;;4.40;1.80;;;24.40;75.80;;;;;;5114687;27;20169;-93
2022/06/08 13:55:31;;;;;;;3.70;1.63;;;24.40;76.30;;;;;;5113170;27;20239;-94
2022/06/08 13:58:00;;;;;;;3.70;1.77;;;24.40;76.60;;;;;;5116605;27;20184;-93
2022/06/08 14:00:33;;;;;;;4.20;1.80;;;24.40;77.30;;;;;;5116212;27;20562;-93
2022/06/08 14:03:09;;;;;;;4.67;1.70;;;24.40;76.90;;;;;;5116520;27;20172;-93
2022/06/08 14:14:00;;;;;;;3.47;1.63;;;24.30;77.10;;;;;;5133153;27;20239;-94
2022/06/08 14:16:26;;;;;;;4.23;1.80;;;24.30;77.40;;;;;;5118400;27;20479;-94
2022/06/08 14:18:54;;;;;;;3.70;1.77;;;24.30;77.60;;;;;;5116781;27;20555;-93
2022/06/08 14:21:21;;;;;;;6.07;1.73;;;24.30;77.60;;;;;;5116883;27;20172;-94
2022/06/08 14:23:51;;;;;;;7.33;2.20;;;24.30;77.60;;;;;;5115861;27;20204;-94
2022/06/08 14:26:20;;;;;;;4.03;1.77;;;24.30;77.70;;;;;;5118340;27;20202;-93
2022/06/08 14:28:49;;;;;;;7.40;1.70;;;24.30;77.70;;;;;;5118026;27;20443;-94
2022/06/08 14:31:36;;;;;;;6.10;2.10;;;24.30;79.70;;;;;;5124337;27;20267;-94
2022/06/08 14:34:12;;;;;;;4.73;2.00;;;24.20;79.20;;;;;;5123794;27;20246;-94
2022/06/08 14:36:38;;;;;;;6.03;1.70;;;24.20;78.80;;;;;;5123582;27;20179;-94